createdAt,value
2022-11-25T00:00:23.105Z,-0.65
2022-11-25T00:01:23.097Z,-0.63
2022-11-25T00:02:23.242Z,-0.65
2022-11-25T00:03:23.158Z,-0.66
2022-11-25T00:04:23.061Z,-0.68
2022-11-25T00:05:23.044Z,-0.69
2022-11-25T00:06:23.305Z,-0.68
2022-11-25T00:07:23.117Z,-0.66
2022-11-25T00:08:23.016Z,-0.62
2022-11-25T00:09:23.197Z,-0.62
2022-11-25T00:10:22.988Z,-0.62
2022-11-25T00:11:22.987Z,-0.60
2022-11-25T00:12:22.975Z,-0.63
2022-11-25T00:13:22.971Z,-0.62
2022-11-25T00:14:22.960Z,-0.63
2022-11-25T00:15:22.927Z,-0.65
2022-11-25T00:16:23.026Z,-0.65
2022-11-25T00:17:22.932Z,-0.65
2022-11-25T00:18:22.978Z,-0.65
2022-11-25T00:19:22.911Z,-0.65
2022-11-25T00:20:22.891Z,-0.62
2022-11-25T00:21:23.852Z,-0.60
2022-11-25T00:22:22.851Z,-0.60
2022-11-25T00:23:22.838Z,-0.59
2022-11-25T00:24:22.865Z,-0.59
2022-11-25T00:25:22.817Z,-0.59
2022-11-25T00:26:22.809Z,-0.55
2022-11-25T00:27:22.807Z,-0.57
2022-11-25T00:28:22.794Z,-0.57
2022-11-25T00:29:22.797Z,-0.57
2022-11-25T00:30:23.463Z,-0.60
2022-11-25T00:31:22.825Z,-0.60
2022-11-25T00:32:22.752Z,-0.60
2022-11-25T00:33:22.727Z,-0.60
2022-11-25T00:34:22.741Z,-0.59
2022-11-25T00:35:22.720Z,-0.59
2022-11-25T00:36:23.001Z,-0.55
2022-11-25T00:37:22.688Z,-0.59
2022-11-25T00:38:22.674Z,-0.55
2022-11-25T00:39:22.665Z,-0.57
2022-11-25T00:40:22.655Z,-0.57
2022-11-25T00:41:22.682Z,-0.55
2022-11-25T00:42:22.637Z,-0.51
2022-11-25T00:43:22.649Z,-0.51
2022-11-25T00:44:22.852Z,-0.54
2022-11-25T00:45:23.516Z,-0.54
2022-11-25T00:46:22.586Z,-0.55
2022-11-25T00:47:22.575Z,-0.52
2022-11-25T00:48:23.538Z,-0.55
2022-11-25T00:49:22.579Z,-0.57
2022-11-25T00:50:22.606Z,-0.54
2022-11-25T00:51:22.538Z,-0.55
2022-11-25T00:52:22.574Z,-0.54
2022-11-25T00:53:22.500Z,-0.52
2022-11-25T00:54:22.505Z,-0.48
2022-11-25T00:55:22.737Z,-0.48
2022-11-25T00:56:22.472Z,-0.48
2022-11-25T00:57:22.505Z,-0.50
2022-11-25T00:58:22.519Z,-0.50
2022-11-25T00:59:22.543Z,-0.50
2022-11-25T01:00:22.566Z,-0.48
2022-11-25T01:01:22.635Z,-0.48
2022-11-25T01:02:22.582Z,-0.50
2022-11-25T01:03:22.518Z,-0.50
2022-11-25T01:04:22.397Z,-0.50
2022-11-25T01:05:22.369Z,-0.47
2022-11-25T01:06:22.356Z,-0.47
2022-11-25T01:07:22.460Z,-0.45
2022-11-25T01:08:22.367Z,-0.44
2022-11-25T01:09:22.533Z,-0.45
2022-11-25T01:10:22.313Z,-0.47
2022-11-25T01:11:22.354Z,-0.45
2022-11-25T01:12:22.315Z,-0.48
2022-11-25T01:13:22.340Z,-0.48
2022-11-25T01:14:22.360Z,-0.44
2022-11-25T01:15:22.456Z,-0.44
2022-11-25T01:16:22.814Z,-0.45
2022-11-25T01:17:22.262Z,-0.48
2022-11-25T01:18:22.300Z,-0.45
2022-11-25T01:19:22.256Z,-0.39
2022-11-25T01:20:22.400Z,-0.37
2022-11-25T01:21:22.195Z,-0.41
2022-11-25T01:22:22.786Z,-0.42
2022-11-25T01:23:22.170Z,-0.41
2022-11-25T01:24:24.036Z,-0.45
2022-11-25T01:25:22.214Z,-0.45
2022-11-25T01:26:22.135Z,-0.44
2022-11-25T01:27:22.230Z,-0.44
2022-11-25T01:28:22.527Z,-0.45
2022-11-25T01:29:22.094Z,-0.45
2022-11-25T01:30:22.097Z,-0.47
2022-11-25T01:31:22.176Z,-0.44
2022-11-25T01:32:22.104Z,-0.47
2022-11-25T01:33:22.080Z,-0.45
2022-11-25T01:34:22.149Z,-0.42
2022-11-25T01:35:22.112Z,-0.42
2022-11-25T01:36:22.210Z,-0.41
2022-11-25T01:37:22.343Z,-0.42
2022-11-25T01:38:22.051Z,-0.44
2022-11-25T01:39:24.462Z,-0.41
2022-11-25T01:40:22.000Z,-0.39
2022-11-25T01:41:22.348Z,-0.41
2022-11-25T01:42:22.007Z,-0.41
2022-11-25T01:43:21.961Z,-0.44
2022-11-25T01:44:21.949Z,-0.45
2022-11-25T01:45:22.013Z,-0.44
2022-11-25T01:46:22.011Z,-0.45
2022-11-25T01:47:21.928Z,-0.42
2022-11-25T01:48:21.905Z,-0.45
2022-11-25T01:49:21.895Z,-0.47
2022-11-25T01:50:21.888Z,-0.47
2022-11-25T01:51:21.919Z,-0.47
2022-11-25T01:52:21.873Z,-0.45
2022-11-25T01:53:21.844Z,-0.42
2022-11-25T01:54:21.832Z,-0.44
2022-11-25T01:55:21.850Z,-0.42
2022-11-25T01:56:21.942Z,-0.42
2022-11-25T01:57:21.824Z,-0.41
2022-11-25T01:58:21.781Z,-0.41
2022-11-25T01:59:21.787Z,-0.42
2022-11-25T02:00:21.765Z,-0.42
2022-11-25T02:01:21.978Z,-0.41
2022-11-25T02:02:21.886Z,-0.41
2022-11-25T02:03:21.745Z,-0.41
2022-11-25T02:04:22.516Z,-0.39
2022-11-25T02:05:21.697Z,-0.39
2022-11-25T02:06:21.694Z,-0.37
2022-11-25T02:07:21.741Z,-0.41
2022-11-25T02:08:21.695Z,-0.39
2022-11-25T02:09:21.675Z,-0.39
2022-11-25T02:10:21.690Z,-0.36
2022-11-25T02:11:21.645Z,-0.34
2022-11-25T02:12:21.676Z,-0.36
2022-11-25T02:13:21.642Z,-0.34
2022-11-25T02:14:21.614Z,-0.33
2022-11-25T02:15:21.602Z,-0.34
2022-11-25T02:16:21.651Z,-0.31
2022-11-25T02:17:22.119Z,-0.36
2022-11-25T02:18:21.563Z,-0.34
2022-11-25T02:19:21.589Z,-0.31
2022-11-25T02:20:21.578Z,-0.33
2022-11-25T02:21:22.386Z,-0.33
2022-11-25T02:22:21.524Z,-0.33
2022-11-25T02:23:21.545Z,-0.33
2022-11-25T02:24:21.540Z,-0.34
2022-11-25T02:25:21.499Z,-0.31
2022-11-25T02:26:21.490Z,-0.30
2022-11-25T02:27:21.472Z,-0.33
2022-11-25T02:28:21.458Z,-0.34
2022-11-25T02:29:21.458Z,-0.34
2022-11-25T02:30:21.456Z,-0.33
2022-11-25T02:31:21.503Z,-0.31
2022-11-25T02:32:21.431Z,-0.34
2022-11-25T02:33:21.413Z,-0.31
2022-11-25T02:34:21.396Z,-0.36
2022-11-25T02:35:21.397Z,-0.36
2022-11-25T02:36:21.364Z,-0.34
2022-11-25T02:37:21.362Z,-0.33
2022-11-25T02:38:21.361Z,-0.33
2022-11-25T02:39:21.343Z,-0.34
2022-11-25T02:40:21.339Z,-0.31
2022-11-25T02:41:21.351Z,-0.33
2022-11-25T02:42:21.321Z,-0.33
2022-11-25T02:43:21.281Z,-0.31
2022-11-25T02:44:21.283Z,-0.33
2022-11-25T02:45:21.286Z,-0.31
2022-11-25T02:46:22.672Z,-0.30
2022-11-25T02:47:22.048Z,-0.29
2022-11-25T02:48:34.511Z,-0.27
2022-11-25T02:49:21.236Z,-0.29
2022-11-25T02:50:21.223Z,-0.27
2022-11-25T02:51:21.220Z,-0.29
2022-11-25T02:52:21.211Z,-0.27
2022-11-25T02:53:21.178Z,-0.29
2022-11-25T02:54:21.226Z,-0.29
2022-11-25T02:55:21.180Z,-0.30
2022-11-25T02:56:21.213Z,-0.29
2022-11-25T02:57:21.154Z,-0.27
2022-11-25T02:58:21.124Z,-0.29
2022-11-25T02:59:21.117Z,-0.30
2022-11-25T03:00:21.093Z,-0.30
2022-11-25T03:01:21.199Z,-0.27
2022-11-25T03:02:21.177Z,-0.30
2022-11-25T03:03:21.071Z,-0.30
2022-11-25T03:04:22.917Z,-0.31
2022-11-25T03:05:21.063Z,-0.34
2022-11-25T03:06:21.057Z,-0.33
2022-11-25T03:07:21.125Z,-0.34
2022-11-25T03:08:21.028Z,-0.36
2022-11-25T03:09:21.013Z,-0.36
2022-11-25T03:10:21.002Z,-0.37
2022-11-25T03:11:21.019Z,-0.37
2022-11-25T03:12:20.966Z,-0.36
2022-11-25T03:13:20.968Z,-0.39
2022-11-25T03:14:21.020Z,-0.37
2022-11-25T03:15:20.941Z,-0.37
2022-11-25T03:16:20.976Z,-0.41
2022-11-25T03:17:20.929Z,-0.41
2022-11-25T03:18:20.904Z,-0.41
2022-11-25T03:19:20.898Z,-0.41
2022-11-25T03:20:20.913Z,-0.34
2022-11-25T03:21:20.889Z,-0.36
2022-11-25T03:22:20.858Z,-0.37
2022-11-25T03:23:20.847Z,-0.36
2022-11-25T03:24:20.842Z,-0.37
2022-11-25T03:25:20.871Z,-0.36
2022-11-25T03:26:20.820Z,-0.39
2022-11-25T03:27:20.811Z,-0.34
2022-11-25T03:28:20.803Z,-0.34
2022-11-25T03:29:20.786Z,-0.34
2022-11-25T03:30:20.800Z,-0.36
2022-11-25T03:31:20.897Z,-0.33
2022-11-25T03:32:20.789Z,-0.31
2022-11-25T03:33:20.742Z,-0.33
2022-11-25T03:34:20.712Z,-0.34
2022-11-25T03:35:20.731Z,-0.36
2022-11-25T03:36:20.753Z,-0.34
2022-11-25T03:37:20.802Z,-0.36
2022-11-25T03:38:20.683Z,-0.33
2022-11-25T03:39:20.690Z,-0.37
2022-11-25T03:40:20.731Z,-0.36
2022-11-25T03:41:20.685Z,-0.37
2022-11-25T03:42:20.655Z,-0.34
2022-11-25T03:43:20.625Z,-0.34
2022-11-25T03:44:20.607Z,-0.36
2022-11-25T03:45:20.619Z,-0.36
2022-11-25T03:46:20.663Z,-0.34
2022-11-25T03:47:20.592Z,-0.36
2022-11-25T03:48:20.581Z,-0.36
2022-11-25T03:49:20.571Z,-0.36
2022-11-25T03:50:20.564Z,-0.39
2022-11-25T03:51:20.553Z,-0.41
2022-11-25T03:52:20.533Z,-0.36
2022-11-25T03:53:20.524Z,-0.36
2022-11-25T03:54:20.545Z,-0.36
2022-11-25T03:55:20.533Z,-0.36
2022-11-25T03:56:20.491Z,-0.39
2022-11-25T03:57:20.485Z,-0.41
2022-11-25T03:58:20.461Z,-0.39
2022-11-25T03:59:20.468Z,-0.39
2022-11-25T04:00:20.472Z,-0.37
2022-11-25T04:01:20.470Z,-0.37
2022-11-25T04:02:20.482Z,-0.37
2022-11-25T04:03:20.431Z,-0.41
2022-11-25T04:04:20.480Z,-0.37
2022-11-25T04:05:20.419Z,-0.39
2022-11-25T04:06:20.405Z,-0.41
2022-11-25T04:07:20.404Z,-0.37
2022-11-25T04:08:20.344Z,-0.36
2022-11-25T04:09:20.351Z,-0.36
2022-11-25T04:10:20.354Z,-0.37
2022-11-25T04:11:20.323Z,-0.33
2022-11-25T04:12:20.339Z,-0.33
2022-11-25T04:13:20.317Z,-0.31
2022-11-25T04:14:20.274Z,-0.30
2022-11-25T04:15:20.282Z,-0.36
2022-11-25T04:16:20.350Z,-0.34
2022-11-25T04:17:20.277Z,-0.37
2022-11-25T04:18:20.240Z,-0.39
2022-11-25T04:19:20.244Z,-0.39
2022-11-25T04:20:20.296Z,-0.41
2022-11-25T04:21:20.231Z,-0.42
2022-11-25T04:22:20.193Z,-0.44
2022-11-25T04:23:20.183Z,-0.37
2022-11-25T04:24:20.187Z,-0.37
2022-11-25T04:25:20.176Z,-0.39
2022-11-25T04:26:20.175Z,-0.39
2022-11-25T04:27:20.607Z,-0.41
2022-11-25T04:28:20.156Z,-0.42
2022-11-25T04:29:20.122Z,-0.42
2022-11-25T04:30:20.115Z,-0.44
2022-11-25T04:31:20.190Z,-0.44
2022-11-25T04:32:20.086Z,-0.41
2022-11-25T04:33:20.078Z,-0.41
2022-11-25T04:34:20.081Z,-0.42
2022-11-25T04:35:20.603Z,-0.42
2022-11-25T04:36:20.081Z,-0.41
2022-11-25T04:37:20.030Z,-0.42
2022-11-25T04:38:20.021Z,-0.37
2022-11-25T04:39:20.010Z,-0.39
2022-11-25T04:40:20.009Z,-0.42
2022-11-25T04:41:19.993Z,-0.41
2022-11-25T04:42:20.004Z,-0.42
2022-11-25T04:43:19.980Z,-0.42
2022-11-25T04:44:19.950Z,-0.41
2022-11-25T04:45:24.086Z,-0.39
2022-11-25T04:46:20.029Z,-0.37
2022-11-25T04:47:19.980Z,-0.37
2022-11-25T04:48:19.944Z,-0.39
2022-11-25T04:49:19.921Z,-0.37
2022-11-25T04:50:19.884Z,-0.39
2022-11-25T04:51:19.878Z,-0.41
2022-11-25T04:52:19.885Z,-0.34
2022-11-25T04:53:19.893Z,-0.34
2022-11-25T04:54:19.879Z,-0.36
2022-11-25T04:55:19.830Z,-0.37
2022-11-25T04:56:19.859Z,-0.37
2022-11-25T04:57:19.823Z,-0.39
2022-11-25T04:58:19.822Z,-0.41
2022-11-25T04:59:19.788Z,-0.39
2022-11-25T05:00:19.827Z,-0.37
2022-11-25T05:01:19.841Z,-0.37
2022-11-25T05:02:19.799Z,-0.37
2022-11-25T05:03:19.757Z,-0.36
2022-11-25T05:04:19.746Z,-0.36
2022-11-25T05:05:19.752Z,-0.36
2022-11-25T05:06:19.715Z,-0.36
2022-11-25T05:07:19.777Z,-0.37
2022-11-25T05:08:19.701Z,-0.39
2022-11-25T05:09:19.688Z,-0.37
2022-11-25T05:10:19.702Z,-0.41
2022-11-25T05:11:19.668Z,-0.44
2022-11-25T05:12:19.663Z,-0.42
2022-11-25T05:13:19.628Z,-0.41
2022-11-25T05:14:19.883Z,-0.42
2022-11-25T05:15:19.626Z,-0.37
2022-11-25T05:16:19.670Z,-0.39
2022-11-25T05:17:19.588Z,-0.36
2022-11-25T05:18:19.578Z,-0.33
2022-11-25T05:19:19.578Z,-0.37
2022-11-25T05:20:19.555Z,-0.37
2022-11-25T05:21:19.574Z,-0.41
2022-11-25T05:22:19.564Z,-0.41
2022-11-25T05:23:19.524Z,-0.41
2022-11-25T05:24:19.528Z,-0.34
2022-11-25T05:25:20.512Z,-0.34
2022-11-25T05:26:19.494Z,-0.41
2022-11-25T05:27:19.495Z,-0.41
2022-11-25T05:28:19.462Z,-0.42
2022-11-25T05:29:19.455Z,-0.41
2022-11-25T05:30:19.440Z,-0.41
2022-11-25T05:31:19.515Z,-0.41
2022-11-25T05:32:19.471Z,-0.41
2022-11-25T05:33:19.474Z,-0.44
2022-11-25T05:34:20.135Z,-0.42
2022-11-25T05:35:19.395Z,-0.42
2022-11-25T05:36:19.390Z,-0.41
2022-11-25T05:37:24.132Z,-0.37
2022-11-25T05:38:19.358Z,-0.41
2022-11-25T05:39:19.413Z,-0.41
2022-11-25T05:40:20.148Z,-0.39
2022-11-25T05:41:19.356Z,-0.41
2022-11-25T05:42:19.346Z,-0.41
2022-11-25T05:43:20.136Z,-0.42
2022-11-25T05:44:22.941Z,-0.41
2022-11-25T05:45:19.299Z,-0.41
2022-11-25T05:46:19.379Z,-0.34
2022-11-25T05:47:19.274Z,-0.37
2022-11-25T05:48:19.241Z,-0.39
2022-11-25T05:49:19.283Z,-0.41
2022-11-25T05:50:19.215Z,-0.41
2022-11-25T05:51:19.203Z,-0.41
2022-11-25T05:52:19.206Z,-0.39
2022-11-25T05:53:19.397Z,-0.39
2022-11-25T05:54:19.205Z,-0.37
2022-11-25T05:55:20.147Z,-0.37
2022-11-25T05:56:19.223Z,-0.41
2022-11-25T05:57:19.168Z,-0.37
2022-11-25T05:58:19.153Z,-0.41
2022-11-25T05:59:20.669Z,-0.44
2022-11-25T06:00:25.033Z,-0.47
2022-11-25T06:01:19.105Z,-0.50
2022-11-25T06:02:19.193Z,-0.52
2022-11-25T06:03:19.193Z,-0.52
2022-11-25T06:04:19.100Z,-0.54
2022-11-25T06:05:19.131Z,-0.57
2022-11-25T06:06:19.049Z,-0.59
2022-11-25T06:07:19.104Z,-0.57
2022-11-25T06:08:19.070Z,-0.57
2022-11-25T06:09:19.016Z,-0.57
2022-11-25T06:10:19.081Z,-0.59
2022-11-25T06:11:19.243Z,-0.57
2022-11-25T06:12:19.690Z,-0.60
2022-11-25T06:13:18.996Z,-0.59
2022-11-25T06:14:19.307Z,-0.57
2022-11-25T06:15:19.026Z,-0.59
2022-11-25T06:16:19.029Z,-0.57
2022-11-25T06:17:18.944Z,-0.55
2022-11-25T06:18:18.929Z,-0.51
2022-11-25T06:19:18.919Z,-0.50
2022-11-25T06:20:18.896Z,-0.48
2022-11-25T06:21:18.920Z,-0.45
2022-11-25T06:22:18.872Z,-0.44
2022-11-25T06:23:18.906Z,-0.41
2022-11-25T06:24:18.840Z,-0.42
2022-11-25T06:25:18.921Z,-0.42
2022-11-25T06:26:19.549Z,-0.39
2022-11-25T06:27:18.810Z,-0.39
2022-11-25T06:28:18.844Z,-0.37
2022-11-25T06:29:18.808Z,-0.37
2022-11-25T06:30:18.811Z,-0.39
2022-11-25T06:31:18.871Z,-0.37
2022-11-25T06:32:18.795Z,-0.37
2022-11-25T06:33:18.769Z,-0.39
2022-11-25T06:34:18.741Z,-0.41
2022-11-25T06:35:18.776Z,-0.41
2022-11-25T06:36:18.706Z,-0.39
2022-11-25T06:37:18.699Z,-0.41
2022-11-25T06:38:18.704Z,-0.39
2022-11-25T06:39:18.688Z,-0.39
2022-11-25T06:40:18.690Z,-0.39
2022-11-25T06:41:18.711Z,-0.37
2022-11-25T06:42:18.654Z,-0.36
2022-11-25T06:43:18.682Z,-0.33
2022-11-25T06:44:18.636Z,-0.34
2022-11-25T06:45:18.618Z,-0.31
2022-11-25T06:46:24.364Z,-0.31
2022-11-25T06:47:18.598Z,-0.33
2022-11-25T06:48:18.638Z,-0.33
2022-11-25T06:49:18.578Z,-0.31
2022-11-25T06:50:18.587Z,-0.33
2022-11-25T06:51:18.570Z,-0.31
2022-11-25T06:52:18.600Z,-0.31
2022-11-25T06:53:23.815Z,-0.31
2022-11-25T06:54:18.530Z,-0.31
2022-11-25T06:55:18.516Z,-0.34
2022-11-25T06:56:18.506Z,-0.30
2022-11-25T06:57:18.520Z,-0.30
2022-11-25T06:58:34.774Z,-0.31
2022-11-25T06:59:18.490Z,-0.34
2022-11-25T07:00:18.570Z,-0.36
2022-11-25T07:01:18.555Z,-0.36
2022-11-25T07:02:18.498Z,-0.34
2022-11-25T07:03:18.472Z,-0.36
2022-11-25T07:04:18.428Z,-0.41
2022-11-25T07:05:18.397Z,-0.33
2022-11-25T07:06:18.419Z,-0.30
2022-11-25T07:07:18.493Z,-0.31
2022-11-25T07:08:18.370Z,-0.30
2022-11-25T07:09:18.481Z,-0.33
2022-11-25T07:10:18.338Z,-0.36
2022-11-25T07:11:18.336Z,-0.33
2022-11-25T07:12:18.323Z,-0.33
2022-11-25T07:13:18.330Z,-0.33
2022-11-25T07:14:18.296Z,-0.33
2022-11-25T07:15:18.305Z,-0.34
2022-11-25T07:16:18.370Z,-0.34
2022-11-25T07:17:18.283Z,-0.33
2022-11-25T07:18:18.300Z,-0.36
2022-11-25T07:19:18.249Z,-0.37
2022-11-25T07:20:18.242Z,-0.37
2022-11-25T07:21:18.271Z,-0.39
2022-11-25T07:22:18.218Z,-0.33
2022-11-25T07:23:18.206Z,-0.31
2022-11-25T07:24:18.206Z,-0.33
2022-11-25T07:25:18.177Z,-0.30
2022-11-25T07:26:18.171Z,-0.33
2022-11-25T07:27:18.156Z,-0.31
2022-11-25T07:28:18.152Z,-0.34
2022-11-25T07:31:21.278Z,-0.34
2022-11-25T07:31:31.072Z,-0.36
2022-11-25T07:32:18.090Z,-0.34
2022-11-25T07:33:18.161Z,-0.33
2022-11-25T07:34:18.075Z,-0.33
2022-11-25T07:35:18.078Z,-0.34
2022-11-25T07:36:18.088Z,-0.33
2022-11-25T07:37:18.063Z,-0.33
2022-11-25T07:38:18.045Z,-0.31
2022-11-25T07:39:18.050Z,-0.33
2022-11-25T07:40:18.295Z,-0.31
2022-11-25T07:41:18.005Z,-0.30
2022-11-25T07:42:18.036Z,-0.33
2022-11-25T07:43:18.016Z,-0.31
2022-11-25T07:44:18.003Z,-0.31
2022-11-25T07:45:18.046Z,-0.29
2022-11-25T07:46:22.046Z,-0.31
2022-11-25T07:47:17.975Z,-0.33
2022-11-25T07:48:17.934Z,-0.33
2022-11-25T07:49:17.919Z,-0.34
2022-11-25T07:50:17.971Z,-0.34
2022-11-25T07:51:17.886Z,-0.33
2022-11-25T07:52:17.909Z,-0.29
2022-11-25T07:53:17.908Z,-0.29
2022-11-25T07:55:34.488Z,-0.27
2022-11-25T07:56:35.474Z,-0.27
2022-11-25T07:57:35.452Z,-0.27
2022-11-25T07:58:35.433Z,-0.27
2022-11-25T07:59:35.686Z,-0.27
2022-11-25T08:00:35.408Z,-0.29
2022-11-25T08:01:35.516Z,-0.26
2022-11-25T08:02:35.430Z,-0.27
2022-11-25T08:03:35.389Z,-0.27
2022-11-25T08:04:35.382Z,-0.31
2022-11-25T08:05:35.362Z,-0.29
2022-11-25T08:06:35.384Z,-0.26
2022-11-25T08:07:36.843Z,-0.24
2022-11-25T08:08:35.331Z,-0.19
2022-11-25T08:09:35.724Z,-0.22
2022-11-25T08:10:35.301Z,-0.19
2022-11-25T08:11:35.302Z,-0.22
2022-11-25T08:12:35.293Z,-0.24
2022-11-25T08:13:35.301Z,-0.29
2022-11-25T08:14:35.298Z,-0.27
2022-11-25T08:15:35.301Z,-0.31
2022-11-25T08:16:35.379Z,-0.30
2022-11-25T08:17:35.463Z,-0.30
2022-11-25T08:18:35.217Z,-0.29
2022-11-25T08:19:35.687Z,-0.26
2022-11-25T08:20:35.236Z,-0.22
2022-11-25T08:21:35.174Z,-0.23
2022-11-25T08:22:35.173Z,-0.22
2022-11-25T08:23:35.177Z,-0.23
2022-11-25T08:24:35.173Z,-0.22
2022-11-25T08:25:35.180Z,-0.22
2022-11-25T08:26:35.123Z,-0.24
2022-11-25T08:27:35.118Z,-0.24
2022-11-25T08:28:35.144Z,-0.23
2022-11-25T08:29:35.621Z,-0.22
2022-11-25T08:30:35.078Z,-0.23
2022-11-25T08:31:35.195Z,-0.24
2022-11-25T08:32:35.095Z,-0.24
2022-11-25T08:33:35.107Z,-0.23
2022-11-25T08:34:35.030Z,-0.23
2022-11-25T08:35:35.041Z,-0.23
2022-11-25T08:36:35.691Z,-0.22
2022-11-25T08:37:35.008Z,-0.23
2022-11-25T08:38:35.204Z,-0.27
2022-11-25T08:40:34.990Z,-0.22
2022-11-25T08:41:34.985Z,-0.22
2022-11-25T08:42:34.966Z,-0.22
2022-11-25T08:43:34.942Z,-0.24
2022-11-25T08:44:34.973Z,-0.23
2022-11-25T08:45:34.960Z,-0.19
2022-11-25T08:46:34.979Z,-0.22
2022-11-25T08:47:34.941Z,-0.19
2022-11-25T08:48:34.916Z,-0.23
2022-11-25T08:49:40.445Z,-0.23
2022-11-25T08:50:34.941Z,-0.18
2022-11-25T08:51:34.877Z,-0.13
2022-11-25T08:52:34.857Z,-0.11
2022-11-25T08:53:34.832Z,-0.18
2022-11-25T08:54:35.109Z,-0.19
2022-11-25T08:55:34.851Z,-0.19
2022-11-25T08:56:34.834Z,-0.19
2022-11-25T08:57:34.814Z,-0.18
2022-11-25T08:58:34.786Z,-0.15
2022-11-25T08:59:35.257Z,-0.13
2022-11-25T09:00:34.757Z,-0.11
2022-11-25T09:01:34.811Z,-0.12
2022-11-25T09:02:34.777Z,-0.12
2022-11-25T09:03:34.721Z,-0.15
2022-11-25T09:04:34.710Z,-0.18
2022-11-25T09:05:34.716Z,-0.19
2022-11-25T09:06:34.725Z,-0.12
2022-11-25T09:07:34.751Z,-0.13
2022-11-25T09:08:34.662Z,-0.11
2022-11-25T09:09:35.239Z,-0.13
2022-11-25T09:10:34.639Z,-0.12
2022-11-25T09:11:34.682Z,-0.12
2022-11-25T09:12:34.655Z,-0.15
2022-11-25T09:13:34.663Z,-0.16
2022-11-25T09:14:34.654Z,-0.12
2022-11-25T09:15:35.203Z,-0.15
2022-11-25T09:16:34.648Z,-0.15
2022-11-25T09:17:34.588Z,-0.15
2022-11-25T09:18:34.551Z,-0.18
2022-11-25T09:19:34.891Z,-0.18
2022-11-25T09:20:34.559Z,-0.16
2022-11-25T09:21:34.534Z,-0.19
2022-11-25T09:22:34.558Z,-0.18
2022-11-25T09:23:34.516Z,-0.18
2022-11-25T09:24:34.497Z,-0.13
2022-11-25T09:25:34.506Z,-0.13
2022-11-25T09:26:34.476Z,-0.13
2022-11-25T09:27:34.488Z,-0.12
2022-11-25T09:28:34.459Z,-0.11
2022-11-25T09:29:34.847Z,-0.11
2022-11-25T09:30:34.450Z,-0.05
2022-11-25T09:31:34.471Z,-0.05
2022-11-25T09:32:34.448Z,-0.08
2022-11-25T09:33:34.390Z,-0.09
2022-11-25T09:34:34.662Z,-0.08
2022-11-25T09:35:34.396Z,-0.08
2022-11-25T09:36:34.378Z,-0.08
2022-11-25T09:37:34.393Z,-0.08
2022-11-25T09:38:37.709Z,-0.05
2022-11-25T09:39:34.531Z,-0.05
2022-11-25T09:40:34.332Z,-0.09
2022-11-25T09:41:34.340Z,-0.09
2022-11-25T09:42:34.290Z,-0.12
2022-11-25T09:43:34.300Z,-0.18
2022-11-25T09:44:34.289Z,-0.16
2022-11-25T09:45:34.285Z,-0.19
2022-11-25T09:46:34.283Z,-0.18
2022-11-25T09:47:34.284Z,-0.16
2022-11-25T09:48:34.222Z,-0.15
2022-11-25T09:49:34.352Z,-0.11
2022-11-25T09:50:34.224Z,-0.12
2022-11-25T09:51:34.210Z,-0.09
2022-11-25T09:52:34.211Z,-0.08
2022-11-25T09:53:34.216Z,-0.09
2022-11-25T09:54:34.162Z,-0.08
2022-11-25T09:55:34.160Z,-0.08
2022-11-25T09:56:34.151Z,-0.05
2022-11-25T09:57:34.260Z,-0.08
2022-11-25T09:58:34.143Z,-0.09
2022-11-25T09:59:34.297Z,-0.11
2022-11-25T10:00:34.122Z,-0.11
2022-11-25T10:01:34.077Z,-0.06
2022-11-25T10:02:34.157Z,-0.08
2022-11-25T10:03:34.251Z,-0.09
2022-11-25T10:04:34.047Z,-0.06
2022-11-25T10:05:34.041Z,-0.08
2022-11-25T10:06:34.406Z,-0.11
2022-11-25T10:07:34.023Z,-0.15
2022-11-25T10:08:34.019Z,-0.12
2022-11-25T10:09:34.293Z,-0.09
2022-11-25T10:10:33.982Z,-0.12
2022-11-25T10:11:33.986Z,-0.15
2022-11-25T10:12:33.993Z,-0.15
2022-11-25T10:13:33.975Z,-0.15
2022-11-25T10:14:33.971Z,-0.11
2022-11-25T10:15:33.944Z,-0.08
2022-11-25T10:16:33.983Z,-0.08
2022-11-25T10:17:33.942Z,-0.06
2022-11-25T10:18:33.923Z,-0.08
2022-11-25T10:19:34.290Z,-0.09
2022-11-25T10:20:33.887Z,-0.08
2022-11-25T10:21:33.888Z,-0.06
2022-11-25T10:22:33.868Z,-0.08
2022-11-25T10:23:33.897Z,-0.09
2022-11-25T10:24:38.423Z,-0.15
2022-11-25T10:25:33.858Z,-0.18
2022-11-25T10:26:33.825Z,-0.26
2022-11-25T10:27:33.806Z,-0.31
2022-11-25T10:28:33.833Z,-0.29
2022-11-25T10:29:33.837Z,-0.31
2022-11-25T10:30:33.788Z,-0.34
2022-11-25T10:31:33.815Z,-0.36
2022-11-25T10:32:33.755Z,-0.34
2022-11-25T10:33:33.782Z,-0.34
2022-11-25T10:34:33.994Z,-0.36
2022-11-25T10:35:33.719Z,-0.39
2022-11-25T10:36:33.707Z,-0.37
2022-11-25T10:37:33.712Z,-0.34
2022-11-25T10:38:33.703Z,-0.31
2022-11-25T10:39:33.716Z,-0.36
2022-11-25T10:40:33.656Z,-0.31
2022-11-25T10:41:33.730Z,-0.30
2022-11-25T10:42:33.668Z,-0.27
2022-11-25T10:43:33.655Z,-0.24
2022-11-25T10:44:33.710Z,-0.13
2022-11-25T10:45:33.622Z,-0.09
2022-11-25T10:46:57.114Z,-0.11
2022-11-25T10:47:33.728Z,-0.08
2022-11-25T10:48:33.577Z,-0.04
2022-11-25T10:49:33.622Z,0.00
2022-11-25T10:50:33.564Z,-0.04
2022-11-25T10:51:33.545Z,-0.08
2022-11-25T10:52:33.555Z,-0.08
2022-11-25T10:53:33.514Z,-0.04
2022-11-25T10:54:33.505Z,0.02
2022-11-25T10:55:33.532Z,-0.04
2022-11-25T10:56:33.481Z,-0.04
2022-11-25T10:57:33.491Z,-0.05
2022-11-25T10:58:33.471Z,-0.04
2022-11-25T10:59:33.465Z,-0.01
2022-11-25T11:00:33.488Z,-0.05
2022-11-25T11:01:33.520Z,-0.05
2022-11-25T11:02:33.461Z,-0.01
2022-11-25T11:03:33.420Z,-0.04
2022-11-25T11:04:33.765Z,-0.04
2022-11-25T11:05:33.428Z,-0.01
2022-11-25T11:06:33.365Z,-0.01
2022-11-25T11:07:33.489Z,0.02
2022-11-25T11:08:33.365Z,0.02
2022-11-25T11:09:33.362Z,0.00
2022-11-25T11:10:33.326Z,0.00
2022-11-25T11:11:33.355Z,0.02
2022-11-25T11:12:33.319Z,0.05
2022-11-25T11:13:33.417Z,0.06
2022-11-25T11:14:33.500Z,0.03
2022-11-25T11:15:33.351Z,0.07
2022-11-25T11:16:33.343Z,0.07
2022-11-25T11:17:36.738Z,0.03
2022-11-25T11:18:33.247Z,0.06
2022-11-25T11:19:33.241Z,0.06
2022-11-25T11:20:33.267Z,0.03
2022-11-25T11:21:33.207Z,-0.01
2022-11-25T11:22:33.215Z,-0.04
2022-11-25T11:23:33.198Z,-0.06
2022-11-25T11:24:33.183Z,-0.13
2022-11-25T11:25:33.190Z,-0.15
2022-11-25T11:26:33.211Z,-0.15
2022-11-25T11:27:33.152Z,-0.16
2022-11-25T11:28:33.169Z,-0.19
2022-11-25T11:29:33.129Z,-0.19
2022-11-25T11:30:33.102Z,-0.22
2022-11-25T11:31:33.168Z,-0.18
2022-11-25T11:32:33.105Z,-0.19
2022-11-25T11:33:33.085Z,-0.15
2022-11-25T11:34:33.109Z,-0.15
2022-11-25T11:35:35.484Z,-0.18
2022-11-25T11:36:33.051Z,-0.13
2022-11-25T11:37:33.058Z,-0.13
2022-11-25T11:38:33.113Z,-0.13
2022-11-25T11:39:33.033Z,-0.15
2022-11-25T11:40:33.042Z,-0.18
2022-11-25T11:41:32.982Z,-0.18
2022-11-25T11:42:32.998Z,-0.18
2022-11-25T11:43:32.983Z,-0.13
2022-11-25T11:44:33.005Z,-0.15
2022-11-25T11:45:32.951Z,-0.15
2022-11-25T11:46:33.037Z,-0.13
2022-11-25T11:47:32.965Z,-0.18
2022-11-25T11:48:32.923Z,-0.19
2022-11-25T11:49:32.984Z,-0.22
2022-11-25T11:50:32.916Z,-0.24
2022-11-25T11:51:32.894Z,-0.27
2022-11-25T11:52:32.895Z,-0.27
2022-11-25T11:53:32.862Z,-0.30
2022-11-25T11:54:32.938Z,-0.34
2022-11-25T11:55:32.875Z,-0.36
2022-11-25T11:56:35.585Z,-0.37
2022-11-25T11:57:32.849Z,-0.37
2022-11-25T11:58:32.823Z,-0.37
2022-11-25T11:59:32.790Z,-0.36
2022-11-25T12:00:32.783Z,-0.37
2022-11-25T12:01:32.883Z,-0.39
2022-11-25T12:02:32.913Z,-0.41
2022-11-25T12:03:32.864Z,-0.37
2022-11-25T12:04:32.745Z,-0.37
2022-11-25T12:05:32.768Z,-0.41
2022-11-25T12:06:32.741Z,-0.42
2022-11-25T12:07:32.840Z,-0.36
2022-11-25T12:08:32.708Z,-0.37
2022-11-25T12:09:32.700Z,-0.39
2022-11-25T12:10:32.703Z,-0.39
2022-11-25T12:11:32.687Z,-0.42
2022-11-25T12:12:32.667Z,-0.44
2022-11-25T12:13:32.678Z,-0.48
2022-11-25T12:14:32.652Z,-0.47
2022-11-25T12:15:32.656Z,-0.47
2022-11-25T12:16:32.699Z,-0.48
2022-11-25T12:17:32.646Z,-0.45
2022-11-25T12:18:32.590Z,-0.45
2022-11-25T12:19:32.610Z,-0.47
2022-11-25T12:20:32.571Z,-0.51
2022-11-25T12:21:35.289Z,-0.50
2022-11-25T12:22:32.560Z,-0.52
2022-11-25T12:23:32.549Z,-0.51
2022-11-25T12:24:32.540Z,-0.52
2022-11-25T12:25:32.545Z,-0.48
2022-11-25T12:26:32.557Z,-0.48
2022-11-25T12:27:32.576Z,-0.47
2022-11-25T12:28:32.481Z,-0.44
2022-11-25T12:29:32.455Z,-0.42
2022-11-25T12:30:32.478Z,-0.45
2022-11-25T12:31:32.540Z,-0.45
2022-11-25T12:32:32.458Z,-0.41
2022-11-25T12:33:32.454Z,-0.44
2022-11-25T12:34:32.417Z,-0.44
2022-11-25T12:35:32.408Z,-0.41
2022-11-25T12:36:32.425Z,-0.42
2022-11-25T12:37:32.490Z,-0.39
2022-11-25T12:38:32.438Z,-0.36
2022-11-25T12:39:32.418Z,-0.37
2022-11-25T12:40:32.368Z,-0.39
2022-11-25T12:41:32.347Z,-0.37
2022-11-25T12:42:32.322Z,-0.42
2022-11-25T12:43:32.334Z,-0.44
2022-11-25T12:44:32.340Z,-0.47
2022-11-25T12:45:32.359Z,-0.45
2022-11-25T12:46:32.275Z,-0.45
2022-11-25T12:47:32.312Z,-0.47
2022-11-25T12:48:32.301Z,-0.47
2022-11-25T12:49:32.284Z,-0.50
2022-11-25T12:50:32.266Z,-0.48
2022-11-25T12:51:32.222Z,-0.48
2022-11-25T12:52:32.258Z,-0.47
2022-11-25T12:53:32.214Z,-0.45
2022-11-25T12:54:32.205Z,-0.45
2022-11-25T12:55:32.233Z,-0.45
2022-11-25T12:56:32.168Z,-0.44